sensor_id;sensor_type;location;lat;lon;timestamp;P1;durP1;ratioP1;P2;durP2;ratioP2
80183;SDS011;69682;52.138;5.440;2023-10-31T00:02:09;1.67;;;0.82;;
80183;SDS011;69682;52.138;5.440;2023-10-31T00:04:36;0.63;;;0.50;;
80183;SDS011;69682;52.138;5.440;2023-10-31T00:07:02;2.28;;;0.90;;
80183;SDS011;69682;52.138;5.440;2023-10-31T00:09:29;1.05;;;0.60;;
80183;SDS011;69682;52.138;5.440;2023-10-31T00:11:55;2.92;;;0.77;;
80183;SDS011;69682;52.138;5.440;2023-10-31T00:14:23;1.20;;;0.80;;
80183;SDS011;69682;52.138;5.440;2023-10-31T00:16:57;2.08;;;0.68;;
80183;SDS011;69682;52.138;5.440;2023-10-31T00:19:24;0.95;;;0.52;;
80183;SDS011;69682;52.138;5.440;2023-10-31T00:21:51;2.60;;;0.70;;
80183;SDS011;69682;52.138;5.440;2023-10-31T00:24:18;2.55;;;0.80;;
80183;SDS011;69682;52.138;5.440;2023-10-31T00:26:44;1.50;;;1.00;;
80183;SDS011;69682;52.138;5.440;2023-10-31T00:29:11;2.28;;;0.50;;
80183;SDS011;69682;52.138;5.440;2023-10-31T00:31:38;0.85;;;0.57;;
80183;SDS011;69682;52.138;5.440;2023-10-31T00:34:07;2.60;;;1.10;;
80183;SDS011;69682;52.138;5.440;2023-10-31T00:36:35;2.35;;;1.05;;
80183;SDS011;69682;52.138;5.440;2023-10-31T00:39:01;3.08;;;1.00;;
80183;SDS011;69682;52.138;5.440;2023-10-31T00:41:28;2.10;;;1.13;;
80183;SDS011;69682;52.138;5.440;2023-10-31T00:43:54;4.25;;;2.13;;
80183;SDS011;69682;52.138;5.440;2023-10-31T00:46:21;5.07;;;1.85;;
80183;SDS011;69682;52.138;5.440;2023-10-31T00:48:48;4.28;;;3.60;;
80183;SDS011;69682;52.138;5.440;2023-10-31T00:51:14;3.60;;;2.13;;
80183;SDS011;69682;52.138;5.440;2023-10-31T00:53:41;4.28;;;1.73;;
80183;SDS011;69682;52.138;5.440;2023-10-31T00:56:08;4.07;;;2.25;;
80183;SDS011;69682;52.138;5.440;2023-10-31T00:58:34;4.50;;;2.67;;
80183;SDS011;69682;52.138;5.440;2023-10-31T01:01:01;5.45;;;3.15;;
80183;SDS011;69682;52.138;5.440;2023-10-31T01:03:27;6.50;;;2.92;;
80183;SDS011;69682;52.138;5.440;2023-10-31T01:05:55;5.35;;;2.97;;
80183;SDS011;69682;52.138;5.440;2023-10-31T01:08:21;7.32;;;2.95;;
80183;SDS011;69682;52.138;5.440;2023-10-31T01:10:48;4.15;;;2.45;;
80183;SDS011;69682;52.138;5.440;2023-10-31T01:13:15;8.90;;;3.03;;
80183;SDS011;69682;52.138;5.440;2023-10-31T01:15:41;4.10;;;2.70;;
80183;SDS011;69682;52.138;5.440;2023-10-31T01:18:08;7.78;;;2.83;;
80183;SDS011;69682;52.138;5.440;2023-10-31T01:20:35;4.55;;;2.65;;
80183;SDS011;69682;52.138;5.440;2023-10-31T01:23:02;8.13;;;3.42;;
80183;SDS011;69682;52.138;5.440;2023-10-31T01:25:28;7.28;;;3.38;;
80183;SDS011;69682;52.138;5.440;2023-10-31T01:27:55;6.20;;;3.25;;
80183;SDS011;69682;52.138;5.440;2023-10-31T01:30:22;6.75;;;3.08;;
80183;SDS011;69682;52.138;5.440;2023-10-31T01:32:52;8.43;;;3.10;;
80183;SDS011;69682;52.138;5.440;2023-10-31T01:35:18;6.95;;;3.28;;
80183;SDS011;69682;52.138;5.440;2023-10-31T01:37:45;6.63;;;2.58;;
80183;SDS011;69682;52.138;5.440;2023-10-31T01:40:14;6.32;;;3.95;;
80183;SDS011;69682;52.138;5.440;2023-10-31T01:42:40;5.82;;;2.85;;
80183;SDS011;69682;52.138;5.440;2023-10-31T01:45:08;4.63;;;2.78;;
80183;SDS011;69682;52.138;5.440;2023-10-31T01:47:35;5.82;;;3.28;;
80183;SDS011;69682;52.138;5.440;2023-10-31T01:50:01;8.60;;;2.78;;
80183;SDS011;69682;52.138;5.440;2023-10-31T01:52:28;6.40;;;2.58;;
80183;SDS011;69682;52.138;5.440;2023-10-31T01:54:59;5.88;;;2.78;;
80183;SDS011;69682;52.138;5.440;2023-10-31T01:57:27;6.10;;;2.75;;
80183;SDS011;69682;52.138;5.440;2023-10-31T01:59:53;4.50;;;2.35;;
80183;SDS011;69682;52.138;5.440;2023-10-31T02:02:21;4.65;;;2.65;;
80183;SDS011;69682;52.138;5.440;2023-10-31T02:04:50;6.32;;;3.17;;
80183;SDS011;69682;52.138;5.440;2023-10-31T02:07:17;5.93;;;3.35;;
80183;SDS011;69682;52.138;5.440;2023-10-31T02:09:44;6.22;;;3.40;;
80183;SDS011;69682;52.138;5.440;2023-10-31T02:12:10;7.75;;;3.53;;
80183;SDS011;69682;52.138;5.440;2023-10-31T02:14:37;7.75;;;3.70;;
80183;SDS011;69682;52.138;5.440;2023-10-31T02:17:03;7.15;;;3.20;;
80183;SDS011;69682;52.138;5.440;2023-10-31T02:19:30;6.50;;;3.28;;
80183;SDS011;69682;52.138;5.440;2023-10-31T02:21:56;5.22;;;3.30;;
80183;SDS011;69682;52.138;5.440;2023-10-31T02:24:23;6.63;;;4.32;;
80183;SDS011;69682;52.138;5.440;2023-10-31T02:26:50;10.93;;;4.25;;
80183;SDS011;69682;52.138;5.440;2023-10-31T02:29:16;10.50;;;4.28;;
80183;SDS011;69682;52.138;5.440;2023-10-31T02:31:49;8.38;;;3.80;;
80183;SDS011;69682;52.138;5.440;2023-10-31T02:34:15;9.95;;;4.47;;
80183;SDS011;69682;52.138;5.440;2023-10-31T02:36:42;8.18;;;3.95;;
80183;SDS011;69682;52.138;5.440;2023-10-31T02:39:08;9.43;;;4.05;;
80183;SDS011;69682;52.138;5.440;2023-10-31T02:41:35;6.32;;;3.88;;
80183;SDS011;69682;52.138;5.440;2023-10-31T02:44:02;6.35;;;3.95;;
80183;SDS011;69682;52.138;5.440;2023-10-31T02:46:31;7.45;;;4.18;;
80183;SDS011;69682;52.138;5.440;2023-10-31T02:49:00;7.53;;;3.58;;
80183;SDS011;69682;52.138;5.440;2023-10-31T02:51:27;5.40;;;3.53;;
80183;SDS011;69682;52.138;5.440;2023-10-31T02:53:53;5.88;;;3.58;;
80183;SDS011;69682;52.138;5.440;2023-10-31T02:56:20;5.22;;;3.30;;
80183;SDS011;69682;52.138;5.440;2023-10-31T02:58:46;6.75;;;3.42;;
80183;SDS011;69682;52.138;5.440;2023-10-31T03:01:16;6.70;;;3.75;;
80183;SDS011;69682;52.138;5.440;2023-10-31T03:03:44;4.38;;;2.78;;
80183;SDS011;69682;52.138;5.440;2023-10-31T03:06:11;5.80;;;3.65;;
80183;SDS011;69682;52.138;5.440;2023-10-31T03:08:37;4.03;;;2.55;;
80183;SDS011;69682;52.138;5.440;2023-10-31T03:11:04;2.97;;;1.55;;
80183;SDS011;69682;52.138;5.440;2023-10-31T03:13:31;5.82;;;2.45;;
80183;SDS011;69682;52.138;5.440;2023-10-31T03:16:00;6.65;;;2.45;;
80183;SDS011;69682;52.138;5.440;2023-10-31T03:18:27;7.57;;;2.65;;
80183;SDS011;69682;52.138;5.440;2023-10-31T03:20:53;5.18;;;2.20;;
80183;SDS011;69682;52.138;5.440;2023-10-31T03:23:20;3.80;;;2.25;;
80183;SDS011;69682;52.138;5.440;2023-10-31T03:25:46;4.75;;;2.47;;
80183;SDS011;69682;52.138;5.440;2023-10-31T03:28:19;5.28;;;2.72;;
80183;SDS011;69682;52.138;5.440;2023-10-31T03:30:49;5.20;;;1.92;;
80183;SDS011;69682;52.138;5.440;2023-10-31T03:33:16;4.05;;;1.98;;
80183;SDS011;69682;52.138;5.440;2023-10-31T03:35:43;3.33;;;2.35;;
80183;SDS011;69682;52.138;5.440;2023-10-31T03:38:11;6.63;;;1.88;;
80183;SDS011;69682;52.138;5.440;2023-10-31T03:40:38;2.80;;;1.60;;
80183;SDS011;69682;52.138;5.440;2023-10-31T03:43:05;2.92;;;1.48;;
80183;SDS011;69682;52.138;5.440;2023-10-31T03:45:31;4.65;;;1.50;;
80183;SDS011;69682;52.138;5.440;2023-10-31T03:48:00;3.47;;;1.05;;
80183;SDS011;69682;52.138;5.440;2023-10-31T03:50:27;2.50;;;1.48;;
80183;SDS011;69682;52.138;5.440;2023-10-31T03:52:54;2.95;;;1.15;;
80183;SDS011;69682;52.138;5.440;2023-10-31T03:55:20;4.18;;;1.10;;
80183;SDS011;69682;52.138;5.440;2023-10-31T03:57:47;2.03;;;0.90;;
80183;SDS011;69682;52.138;5.440;2023-10-31T04:00:13;3.05;;;1.50;;
80183;SDS011;69682;52.138;5.440;2023-10-31T04:02:41;3.72;;;0.60;;
80183;SDS011;69682;52.138;5.440;2023-10-31T04:05:07;1.33;;;0.52;;
80183;SDS011;69682;52.138;5.440;2023-10-31T04:07:34;1.10;;;0.77;;
80183;SDS011;69682;52.138;5.440;2023-10-31T04:10:01;2.00;;;0.50;;
80183;SDS011;69682;52.138;5.440;2023-10-31T04:12:29;1.65;;;0.90;;
80183;SDS011;69682;52.138;5.440;2023-10-31T04:14:55;1.35;;;0.63;;
80183;SDS011;69682;52.138;5.440;2023-10-31T04:17:22;1.70;;;0.73;;
80183;SDS011;69682;52.138;5.440;2023-10-31T04:19:49;2.30;;;0.52;;
80183;SDS011;69682;52.138;5.440;2023-10-31T04:22:15;0.50;;;0.50;;
80183;SDS011;69682;52.138;5.440;2023-10-31T04:24:42;1.60;;;0.60;;
80183;SDS011;69682;52.138;5.440;2023-10-31T04:27:09;0.50;;;0.50;;
80183;SDS011;69682;52.138;5.440;2023-10-31T04:29:36;0.40;;;0.40;;
80183;SDS011;69682;52.138;5.440;2023-10-31T04:32:02;2.15;;;0.80;;
80183;SDS011;69682;52.138;5.440;2023-10-31T04:34:29;2.67;;;0.60;;
80183;SDS011;69682;52.138;5.440;2023-10-31T04:36:56;1.60;;;0.73;;
80183;SDS011;69682;52.138;5.440;2023-10-31T04:39:23;1.35;;;0.52;;
80183;SDS011;69682;52.138;5.440;2023-10-31T04:41:50;0.73;;;0.73;;
80183;SDS011;69682;52.138;5.440;2023-10-31T04:44:16;2.95;;;0.60;;
80183;SDS011;69682;52.138;5.440;2023-10-31T04:46:43;1.52;;;0.70;;
80183;SDS011;69682;52.138;5.440;2023-10-31T04:49:10;2.00;;;0.68;;
80183;SDS011;69682;52.138;5.440;2023-10-31T04:51:37;0.63;;;0.63;;
80183;SDS011;69682;52.138;5.440;2023-10-31T04:54:04;2.75;;;0.57;;
80183;SDS011;69682;52.138;5.440;2023-10-31T04:56:31;4.97;;;0.90;;
80183;SDS011;69682;52.138;5.440;2023-10-31T04:58:58;1.45;;;0.40;;
80183;SDS011;69682;52.138;5.440;2023-10-31T05:01:24;1.42;;;0.80;;
80183;SDS011;69682;52.138;5.440;2023-10-31T05:03:51;2.50;;;0.77;;
80183;SDS011;69682;52.138;5.440;2023-10-31T05:06:36;1.25;;;0.65;;
80183;SDS011;69682;52.138;5.440;2023-10-31T05:09:02;0.60;;;0.50;;
80183;SDS011;69682;52.138;5.440;2023-10-31T05:11:29;2.90;;;0.80;;
80183;SDS011;69682;52.138;5.440;2023-10-31T05:13:59;1.92;;;0.52;;
80183;SDS011;69682;52.138;5.440;2023-10-31T05:16:25;1.63;;;0.80;;
80183;SDS011;69682;52.138;5.440;2023-10-31T05:18:52;0.77;;;0.40;;
80183;SDS011;69682;52.138;5.440;2023-10-31T05:21:19;1.20;;;0.65;;
80183;SDS011;69682;52.138;5.440;2023-10-31T05:23:50;1.20;;;0.68;;
80183;SDS011;69682;52.138;5.440;2023-10-31T05:26:16;1.67;;;0.63;;
80183;SDS011;69682;52.138;5.440;2023-10-31T05:28:43;0.82;;;0.82;;
80183;SDS011;69682;52.138;5.440;2023-10-31T05:31:09;0.82;;;0.52;;
80183;SDS011;69682;52.138;5.440;2023-10-31T05:33:36;0.45;;;0.40;;
80183;SDS011;69682;52.138;5.440;2023-10-31T05:36:02;2.65;;;0.50;;
80183;SDS011;69682;52.138;5.440;2023-10-31T05:38:29;1.80;;;0.50;;
80183;SDS011;69682;52.138;5.440;2023-10-31T05:40:56;3.08;;;0.70;;
80183;SDS011;69682;52.138;5.440;2023-10-31T05:43:23;1.60;;;0.50;;
80183;SDS011;69682;52.138;5.440;2023-10-31T05:45:49;0.73;;;0.50;;
80183;SDS011;69682;52.138;5.440;2023-10-31T05:48:16;0.77;;;0.43;;
80183;SDS011;69682;52.138;5.440;2023-10-31T05:50:43;2.72;;;0.80;;
80183;SDS011;69682;52.138;5.440;2023-10-31T05:53:10;1.65;;;0.65;;
80183;SDS011;69682;52.138;5.440;2023-10-31T05:55:40;2.13;;;0.70;;
80183;SDS011;69682;52.138;5.440;2023-10-31T05:58:07;1.45;;;0.95;;
80183;SDS011;69682;52.138;5.440;2023-10-31T06:00:34;2.55;;;1.40;;
80183;SDS011;69682;52.138;5.440;2023-10-31T06:03:01;3.03;;;0.80;;
80183;SDS011;69682;52.138;5.440;2023-10-31T06:05:28;2.10;;;1.10;;
80183;SDS011;69682;52.138;5.440;2023-10-31T06:07:55;2.10;;;1.20;;
80183;SDS011;69682;52.138;5.440;2023-10-31T06:10:22;2.05;;;1.10;;
80183;SDS011;69682;52.138;5.440;2023-10-31T06:12:48;1.85;;;1.40;;
80183;SDS011;69682;52.138;5.440;2023-10-31T06:15:15;3.03;;;1.45;;
80183;SDS011;69682;52.138;5.440;2023-10-31T06:17:42;3.42;;;1.80;;
80183;SDS011;69682;52.138;5.440;2023-10-31T06:20:08;2.30;;;1.52;;
80183;SDS011;69682;52.138;5.440;2023-10-31T06:22:35;4.18;;;2.10;;
80183;SDS011;69682;52.138;5.440;2023-10-31T06:25:02;3.53;;;1.77;;
80183;SDS011;69682;52.138;5.440;2023-10-31T06:27:28;3.78;;;2.00;;
80183;SDS011;69682;52.138;5.440;2023-10-31T06:29:56;4.32;;;1.98;;
80183;SDS011;69682;52.138;5.440;2023-10-31T06:32:42;5.10;;;1.77;;
80183;SDS011;69682;52.138;5.440;2023-10-31T06:35:09;4.60;;;2.15;;
80183;SDS011;69682;52.138;5.440;2023-10-31T06:37:35;6.05;;;2.13;;
80183;SDS011;69682;52.138;5.440;2023-10-31T06:40:06;3.88;;;2.28;;
80183;SDS011;69682;52.138;5.440;2023-10-31T06:42:32;4.60;;;3.03;;
80183;SDS011;69682;52.138;5.440;2023-10-31T06:45:00;4.88;;;2.05;;
80183;SDS011;69682;52.138;5.440;2023-10-31T06:47:27;4.85;;;2.28;;
80183;SDS011;69682;52.138;5.440;2023-10-31T06:49:54;5.25;;;2.42;;
80183;SDS011;69682;52.138;5.440;2023-10-31T06:52:20;3.55;;;2.33;;
80183;SDS011;69682;52.138;5.440;2023-10-31T06:54:47;7.78;;;1.92;;
80183;SDS011;69682;52.138;5.440;2023-10-31T06:57:13;2.25;;;1.38;;
80183;SDS011;69682;52.138;5.440;2023-10-31T06:59:41;2.92;;;1.52;;
80183;SDS011;69682;52.138;5.440;2023-10-31T07:02:08;2.45;;;1.40;;
80183;SDS011;69682;52.138;5.440;2023-10-31T07:04:35;4.03;;;1.40;;
80183;SDS011;69682;52.138;5.440;2023-10-31T07:07:02;3.03;;;1.08;;
80183;SDS011;69682;52.138;5.440;2023-10-31T07:09:31;3.60;;;1.15;;
80183;SDS011;69682;52.138;5.440;2023-10-31T07:11:58;3.13;;;1.08;;
80183;SDS011;69682;52.138;5.440;2023-10-31T07:14:25;2.30;;;0.98;;
80183;SDS011;69682;52.138;5.440;2023-10-31T07:16:51;1.83;;;0.93;;
80183;SDS011;69682;52.138;5.440;2023-10-31T07:19:18;1.80;;;0.93;;
80183;SDS011;69682;52.138;5.440;2023-10-31T07:21:47;2.63;;;1.13;;
80183;SDS011;69682;52.138;5.440;2023-10-31T07:24:14;0.77;;;0.70;;
80183;SDS011;69682;52.138;5.440;2023-10-31T07:26:40;3.13;;;0.80;;
80183;SDS011;69682;52.138;5.440;2023-10-31T07:29:07;0.80;;;0.68;;
80183;SDS011;69682;52.138;5.440;2023-10-31T07:31:35;4.63;;;0.95;;
80183;SDS011;69682;52.138;5.440;2023-10-31T07:34:05;3.55;;;0.70;;
80183;SDS011;69682;52.138;5.440;2023-10-31T07:36:32;0.90;;;0.65;;
80183;SDS011;69682;52.138;5.440;2023-10-31T07:39:01;2.47;;;0.60;;
80183;SDS011;69682;52.138;5.440;2023-10-31T07:41:28;1.20;;;0.80;;
80183;SDS011;69682;52.138;5.440;2023-10-31T07:43:55;1.98;;;0.88;;
80183;SDS011;69682;52.138;5.440;2023-10-31T07:46:22;1.13;;;0.95;;
80183;SDS011;69682;52.138;5.440;2023-10-31T07:48:52;2.05;;;0.77;;
80183;SDS011;69682;52.138;5.440;2023-10-31T07:51:18;1.35;;;0.63;;
80183;SDS011;69682;52.138;5.440;2023-10-31T07:53:53;1.45;;;0.93;;
80183;SDS011;69682;52.138;5.440;2023-10-31T07:56:20;1.38;;;1.00;;
80183;SDS011;69682;52.138;5.440;2023-10-31T07:58:49;1.75;;;0.80;;
80183;SDS011;69682;52.138;5.440;2023-10-31T08:01:22;0.93;;;0.65;;
80183;SDS011;69682;52.138;5.440;2023-10-31T08:03:49;2.28;;;0.85;;
80183;SDS011;69682;52.138;5.440;2023-10-31T08:06:15;2.75;;;1.20;;
80183;SDS011;69682;52.138;5.440;2023-10-31T08:08:42;2.22;;;0.80;;
80183;SDS011;69682;52.138;5.440;2023-10-31T08:11:09;2.53;;;0.80;;
80183;SDS011;69682;52.138;5.440;2023-10-31T08:13:37;2.20;;;0.95;;
80183;SDS011;69682;52.138;5.440;2023-10-31T08:16:05;3.47;;;1.10;;
80183;SDS011;69682;52.138;5.440;2023-10-31T08:18:35;2.05;;;1.10;;
80183;SDS011;69682;52.138;5.440;2023-10-31T08:21:02;2.95;;;1.95;;
80183;SDS011;69682;52.138;5.440;2023-10-31T08:23:29;2.58;;;1.27;;
80183;SDS011;69682;52.138;5.440;2023-10-31T08:25:56;2.97;;;1.45;;
80183;SDS011;69682;52.138;5.440;2023-10-31T08:28:25;1.52;;;1.13;;
80183;SDS011;69682;52.138;5.440;2023-10-31T08:30:52;2.72;;;1.10;;
80183;SDS011;69682;52.138;5.440;2023-10-31T08:33:20;4.80;;;1.90;;
80183;SDS011;69682;52.138;5.440;2023-10-31T08:35:47;3.10;;;1.45;;
80183;SDS011;69682;52.138;5.440;2023-10-31T08:38:14;5.32;;;2.53;;
80183;SDS011;69682;52.138;5.440;2023-10-31T08:40:54;2.58;;;1.50;;
80183;SDS011;69682;52.138;5.440;2023-10-31T08:43:21;4.22;;;1.60;;
80183;SDS011;69682;52.138;5.440;2023-10-31T08:45:48;2.22;;;1.45;;
80183;SDS011;69682;52.138;5.440;2023-10-31T08:48:14;2.22;;;1.33;;
80183;SDS011;69682;52.138;5.440;2023-10-31T08:50:42;5.28;;;2.15;;
80183;SDS011;69682;52.138;5.440;2023-10-31T08:53:09;3.35;;;1.60;;
80183;SDS011;69682;52.138;5.440;2023-10-31T08:55:36;3.10;;;1.58;;
80183;SDS011;69682;52.138;5.440;2023-10-31T08:58:02;4.90;;;1.70;;
80183;SDS011;69682;52.138;5.440;2023-10-31T09:00:30;5.30;;;1.90;;
80183;SDS011;69682;52.138;5.440;2023-10-31T09:02:56;3.80;;;1.77;;
80183;SDS011;69682;52.138;5.440;2023-10-31T09:05:23;3.80;;;1.40;;
80183;SDS011;69682;52.138;5.440;2023-10-31T09:07:49;3.72;;;1.65;;
80183;SDS011;69682;52.138;5.440;2023-10-31T09:10:16;4.35;;;1.55;;
80183;SDS011;69682;52.138;5.440;2023-10-31T09:12:42;6.18;;;1.85;;
80183;SDS011;69682;52.138;5.440;2023-10-31T09:15:09;3.58;;;1.83;;
80183;SDS011;69682;52.138;5.440;2023-10-31T09:17:36;2.90;;;1.63;;
80183;SDS011;69682;52.138;5.440;2023-10-31T09:20:06;5.60;;;1.52;;
80183;SDS011;69682;52.138;5.440;2023-10-31T09:22:34;5.15;;;1.80;;
80183;SDS011;69682;52.138;5.440;2023-10-31T09:25:04;5.40;;;1.48;;
80183;SDS011;69682;52.138;5.440;2023-10-31T09:27:31;7.10;;;1.70;;
80183;SDS011;69682;52.138;5.440;2023-10-31T09:29:57;3.50;;;1.63;;
80183;SDS011;69682;52.138;5.440;2023-10-31T09:32:24;7.60;;;2.42;;
80183;SDS011;69682;52.138;5.440;2023-10-31T09:34:51;3.28;;;0.95;;
80183;SDS011;69682;52.138;5.440;2023-10-31T09:37:18;2.75;;;1.48;;
80183;SDS011;69682;52.138;5.440;2023-10-31T09:39:45;4.88;;;2.03;;
80183;SDS011;69682;52.138;5.440;2023-10-31T09:42:11;4.18;;;1.65;;
80183;SDS011;69682;52.138;5.440;2023-10-31T09:44:38;4.13;;;2.20;;
80183;SDS011;69682;52.138;5.440;2023-10-31T09:47:05;5.53;;;1.90;;
80183;SDS011;69682;52.138;5.440;2023-10-31T09:49:32;3.15;;;1.52;;
80183;SDS011;69682;52.138;5.440;2023-10-31T09:52:00;3.30;;;1.42;;
80183;SDS011;69682;52.138;5.440;2023-10-31T09:54:28;3.40;;;1.48;;
80183;SDS011;69682;52.138;5.440;2023-10-31T09:56:55;2.55;;;1.67;;
80183;SDS011;69682;52.138;5.440;2023-10-31T09:59:21;3.53;;;1.70;;
80183;SDS011;69682;52.138;5.440;2023-10-31T10:01:48;5.57;;;1.80;;
80183;SDS011;69682;52.138;5.440;2023-10-31T10:04:16;4.97;;;1.90;;
80183;SDS011;69682;52.138;5.440;2023-10-31T10:06:51;2.22;;;1.52;;
80183;SDS011;69682;52.138;5.440;2023-10-31T10:09:18;6.22;;;1.98;;
80183;SDS011;69682;52.138;5.440;2023-10-31T10:11:45;4.00;;;1.60;;
80183;SDS011;69682;52.138;5.440;2023-10-31T10:14:11;2.90;;;1.60;;
80183;SDS011;69682;52.138;5.440;2023-10-31T10:16:38;5.07;;;1.60;;
80183;SDS011;69682;52.138;5.440;2023-10-31T10:19:21;4.25;;;1.42;;
80183;SDS011;69682;52.138;5.440;2023-10-31T10:21:55;7.00;;;1.42;;
80183;SDS011;69682;52.138;5.440;2023-10-31T10:24:24;3.33;;;1.75;;
80183;SDS011;69682;52.138;5.440;2023-10-31T10:26:51;4.13;;;1.98;;
80183;SDS011;69682;52.138;5.440;2023-10-31T10:29:18;5.32;;;1.60;;
80183;SDS011;69682;52.138;5.440;2023-10-31T10:31:44;3.45;;;1.52;;
80183;SDS011;69682;52.138;5.440;2023-10-31T10:34:14;3.85;;;1.63;;
80183;SDS011;69682;52.138;5.440;2023-10-31T10:36:46;7.45;;;1.85;;
80183;SDS011;69682;52.138;5.440;2023-10-31T10:39:21;3.75;;;1.55;;
80183;SDS011;69682;52.138;5.440;2023-10-31T10:41:53;9.02;;;2.05;;
80183;SDS011;69682;52.138;5.440;2023-10-31T10:44:31;6.63;;;1.55;;
80183;SDS011;69682;52.138;5.440;2023-10-31T10:47:03;4.65;;;1.75;;
80183;SDS011;69682;52.138;5.440;2023-10-31T10:49:34;3.25;;;1.23;;
80183;SDS011;69682;52.138;5.440;2023-10-31T10:52:14;7.15;;;2.05;;
80183;SDS011;69682;52.138;5.440;2023-10-31T10:57:31;4.82;;;1.52;;
80183;SDS011;69682;52.138;5.440;2023-10-31T11:00:06;4.18;;;1.40;;
80183;SDS011;69682;52.138;5.440;2023-10-31T11:02:39;4.65;;;1.60;;
80183;SDS011;69682;52.138;5.440;2023-10-31T11:05:09;4.13;;;1.83;;
80183;SDS011;69682;52.138;5.440;2023-10-31T11:07:36;3.90;;;2.13;;
80183;SDS011;69682;52.138;5.440;2023-10-31T11:10:04;2.33;;;1.65;;
80183;SDS011;69682;52.138;5.440;2023-10-31T11:12:37;5.18;;;1.60;;
80183;SDS011;69682;52.138;5.440;2023-10-31T11:15:07;7.43;;;1.77;;
80183;SDS011;69682;52.138;5.440;2023-10-31T11:17:39;5.90;;;2.53;;
80183;SDS011;69682;52.138;5.440;2023-10-31T11:20:12;2.53;;;1.45;;
80183;SDS011;69682;52.138;5.440;2023-10-31T11:22:42;3.42;;;1.23;;
80183;SDS011;69682;52.138;5.440;2023-10-31T11:25:17;7.88;;;1.70;;
80183;SDS011;69682;52.138;5.440;2023-10-31T11:28:10;7.25;;;2.08;;
80183;SDS011;69682;52.138;5.440;2023-10-31T11:30:40;3.22;;;1.40;;
80183;SDS011;69682;52.138;5.440;2023-10-31T11:33:11;4.53;;;1.65;;
80183;SDS011;69682;52.138;5.440;2023-10-31T11:35:39;7.10;;;1.40;;
80183;SDS011;69682;52.138;5.440;2023-10-31T11:38:07;3.35;;;1.67;;
80183;SDS011;69682;52.138;5.440;2023-10-31T11:46:04;2.33;;;1.08;;
80183;SDS011;69682;52.138;5.440;2023-10-31T11:48:44;6.25;;;1.75;;
80183;SDS011;69682;52.138;5.440;2023-10-31T11:51:13;2.58;;;1.48;;
80183;SDS011;69682;52.138;5.440;2023-10-31T11:53:43;2.13;;;1.50;;
80183;SDS011;69682;52.138;5.440;2023-10-31T11:56:11;4.85;;;2.30;;
80183;SDS011;69682;52.138;5.440;2023-10-31T11:58:38;3.53;;;2.17;;
80183;SDS011;69682;52.138;5.440;2023-10-31T12:01:05;8.13;;;2.50;;
80183;SDS011;69682;52.138;5.440;2023-10-31T12:03:40;4.53;;;2.65;;
80183;SDS011;69682;52.138;5.440;2023-10-31T12:06:09;7.15;;;2.13;;
80183;SDS011;69682;52.138;5.440;2023-10-31T12:11:07;4.63;;;2.50;;
80183;SDS011;69682;52.138;5.440;2023-10-31T12:13:35;5.72;;;2.58;;
80183;SDS011;69682;52.138;5.440;2023-10-31T12:16:03;11.05;;;3.42;;
80183;SDS011;69682;52.138;5.440;2023-10-31T12:18:33;9.40;;;3.22;;
80183;SDS011;69682;52.138;5.440;2023-10-31T12:21:01;5.22;;;3.47;;
80183;SDS011;69682;52.138;5.440;2023-10-31T12:23:29;6.93;;;3.88;;
80183;SDS011;69682;52.138;5.440;2023-10-31T12:25:58;6.13;;;4.15;;
80183;SDS011;69682;52.138;5.440;2023-10-31T12:28:25;12.48;;;7.07;;
80183;SDS011;69682;52.138;5.440;2023-10-31T12:30:53;14.75;;;7.90;;
80183;SDS011;69682;52.138;5.440;2023-10-31T12:33:27;14.55;;;7.68;;
80183;SDS011;69682;52.138;5.440;2023-10-31T12:35:58;17.48;;;7.47;;
80183;SDS011;69682;52.138;5.440;2023-10-31T12:38:26;17.42;;;8.32;;
80183;SDS011;69682;52.138;5.440;2023-10-31T12:40:57;15.93;;;8.13;;
80183;SDS011;69682;52.138;5.440;2023-10-31T12:43:27;16.70;;;7.50;;
80183;SDS011;69682;52.138;5.440;2023-10-31T12:45:54;18.42;;;9.25;;
80183;SDS011;69682;52.138;5.440;2023-10-31T12:48:23;19.38;;;8.50;;
80183;SDS011;69682;52.138;5.440;2023-10-31T12:50:55;17.25;;;7.03;;
80183;SDS011;69682;52.138;5.440;2023-10-31T12:53:33;17.33;;;9.90;;
80183;SDS011;69682;52.138;5.440;2023-10-31T12:56:01;16.95;;;8.85;;
80183;SDS011;69682;52.138;5.440;2023-10-31T12:58:30;18.77;;;8.82;;
80183;SDS011;69682;52.138;5.440;2023-10-31T13:00:57;18.25;;;7.95;;
80183;SDS011;69682;52.138;5.440;2023-10-31T13:03:23;22.45;;;8.68;;
80183;SDS011;69682;52.138;5.440;2023-10-31T13:05:53;20.13;;;8.68;;
80183;SDS011;69682;52.138;5.440;2023-10-31T13:08:22;22.20;;;10.23;;
80183;SDS011;69682;52.138;5.440;2023-10-31T13:10:48;15.48;;;8.50;;
80183;SDS011;69682;52.138;5.440;2023-10-31T13:13:15;19.52;;;9.80;;
80183;SDS011;69682;52.138;5.440;2023-10-31T13:15:42;16.50;;;8.88;;
80183;SDS011;69682;52.138;5.440;2023-10-31T13:18:09;16.55;;;8.50;;
80183;SDS011;69682;52.138;5.440;2023-10-31T13:20:37;19.10;;;9.85;;
80183;SDS011;69682;52.138;5.440;2023-10-31T13:23:04;17.92;;;8.32;;
80183;SDS011;69682;52.138;5.440;2023-10-31T13:25:31;18.35;;;8.65;;
80183;SDS011;69682;52.138;5.440;2023-10-31T13:27:58;17.08;;;8.35;;
80183;SDS011;69682;52.138;5.440;2023-10-31T13:30:24;19.70;;;7.95;;
80183;SDS011;69682;52.138;5.440;2023-10-31T13:32:51;18.20;;;8.55;;
80183;SDS011;69682;52.138;5.440;2023-10-31T13:35:19;17.27;;;8.73;;
80183;SDS011;69682;52.138;5.440;2023-10-31T13:37:46;19.15;;;8.95;;
80183;SDS011;69682;52.138;5.440;2023-10-31T13:40:14;16.92;;;8.93;;
80183;SDS011;69682;52.138;5.440;2023-10-31T13:42:41;15.52;;;7.82;;
80183;SDS011;69682;52.138;5.440;2023-10-31T13:45:10;18.17;;;7.55;;
80183;SDS011;69682;52.138;5.440;2023-10-31T13:47:37;15.63;;;7.93;;
80183;SDS011;69682;52.138;5.440;2023-10-31T13:50:05;17.42;;;7.43;;
80183;SDS011;69682;52.138;5.440;2023-10-31T13:52:33;13.82;;;7.38;;
80183;SDS011;69682;52.138;5.440;2023-10-31T13:55:00;18.90;;;9.05;;
80183;SDS011;69682;52.138;5.440;2023-10-31T13:57:26;15.48;;;6.95;;
80183;SDS011;69682;52.138;5.440;2023-10-31T13:59:53;17.73;;;8.20;;
80183;SDS011;69682;52.138;5.440;2023-10-31T14:02:20;16.25;;;7.22;;
80183;SDS011;69682;52.138;5.440;2023-10-31T14:04:46;13.98;;;6.32;;
80183;SDS011;69682;52.138;5.440;2023-10-31T14:07:14;14.93;;;6.72;;
80183;SDS011;69682;52.138;5.440;2023-10-31T14:09:48;11.68;;;6.30;;
80183;SDS011;69682;52.138;5.440;2023-10-31T14:12:14;10.98;;;5.47;;
80183;SDS011;69682;52.138;5.440;2023-10-31T14:14:41;14.38;;;7.47;;
80183;SDS011;69682;52.138;5.440;2023-10-31T14:17:08;11.65;;;5.80;;
80183;SDS011;69682;52.138;5.440;2023-10-31T14:19:34;12.30;;;6.55;;
80183;SDS011;69682;52.138;5.440;2023-10-31T14:22:01;12.50;;;6.75;;
80183;SDS011;69682;52.138;5.440;2023-10-31T14:24:28;16.05;;;7.05;;
80183;SDS011;69682;52.138;5.440;2023-10-31T14:26:54;14.32;;;7.55;;
80183;SDS011;69682;52.138;5.440;2023-10-31T14:29:21;12.38;;;6.30;;
80183;SDS011;69682;52.138;5.440;2023-10-31T14:31:47;15.27;;;7.05;;
80183;SDS011;69682;52.138;5.440;2023-10-31T14:34:15;14.52;;;8.25;;
80183;SDS011;69682;52.138;5.440;2023-10-31T14:36:42;12.75;;;6.38;;
80183;SDS011;69682;52.138;5.440;2023-10-31T14:39:09;16.70;;;7.97;;
80183;SDS011;69682;52.138;5.440;2023-10-31T14:41:38;15.55;;;7.35;;
80183;SDS011;69682;52.138;5.440;2023-10-31T14:44:05;12.00;;;6.85;;
80183;SDS011;69682;52.138;5.440;2023-10-31T14:46:32;14.77;;;7.20;;
80183;SDS011;69682;52.138;5.440;2023-10-31T14:48:59;14.82;;;8.18;;
80183;SDS011;69682;52.138;5.440;2023-10-31T14:51:26;13.98;;;7.63;;
80183;SDS011;69682;52.138;5.440;2023-10-31T14:53:52;17.23;;;8.45;;
80183;SDS011;69682;52.138;5.440;2023-10-31T14:56:19;15.23;;;8.60;;
80183;SDS011;69682;52.138;5.440;2023-10-31T14:58:46;15.20;;;8.52;;
80183;SDS011;69682;52.138;5.440;2023-10-31T15:01:13;14.18;;;7.43;;